sensor_id;sensor_type;location;lat;lon;timestamp;pressure;altitude;pressure_sealevel;temperature;humidity
818;BME280;391;51.052;6.954;2023-02-17T00:00:47;101467.19;;;11.26;84.41
818;BME280;391;51.052;6.954;2023-02-17T00:02:54;101464.63;;;11.27;84.77
818;BME280;391;51.052;6.954;2023-02-17T00:04:58;101471.59;;;11.50;83.77
818;BME280;391;51.052;6.954;2023-02-17T00:07:01;101469.31;;;11.36;84.13
818;BME280;391;51.052;6.954;2023-02-17T00:09:05;101463.06;;;11.54;83.59
818;BME280;391;51.052;6.954;2023-02-17T00:11:10;101461.66;;;11.64;82.91
818;BME280;391;51.052;6.954;2023-02-17T00:13:16;101464.53;;;11.48;82.93
818;BME280;391;51.052;6.954;2023-02-17T00:15:20;101462.81;;;11.48;83.57
818;BME280;391;51.052;6.954;2023-02-17T00:17:23;101460.38;;;11.53;83.22
818;BME280;391;51.052;6.954;2023-02-17T00:19:27;101451.63;;;11.52;83.08
818;BME280;391;51.052;6.954;2023-02-17T00:21:31;101458.44;;;11.47;83.31
818;BME280;391;51.052;6.954;2023-02-17T00:23:34;101450.09;;;11.57;83.23
818;BME280;391;51.052;6.954;2023-02-17T00:25:38;101442.56;;;11.43;83.13
818;BME280;391;51.052;6.954;2023-02-17T00:27:43;101455.25;;;11.32;84.30
818;BME280;391;51.052;6.954;2023-02-17T00:29:46;101459.09;;;11.42;84.00
818;BME280;391;51.052;6.954;2023-02-17T00:31:52;101456.50;;;11.42;83.91
818;BME280;391;51.052;6.954;2023-02-17T00:33:57;101441.19;;;11.52;83.12
818;BME280;391;51.052;6.954;2023-02-17T00:36:04;101443.81;;;11.52;83.60
818;BME280;391;51.052;6.954;2023-02-17T00:38:08;101447.81;;;11.43;83.72
818;BME280;391;51.052;6.954;2023-02-17T00:40:13;101442.03;;;11.51;83.70
818;BME280;391;51.052;6.954;2023-02-17T00:42:17;101462.19;;;11.55;84.00
818;BME280;391;51.052;6.954;2023-02-17T00:44:23;101446.88;;;11.64;83.50
818;BME280;391;51.052;6.954;2023-02-17T00:46:27;101448.88;;;11.72;83.00
818;BME280;391;51.052;6.954;2023-02-17T00:48:30;101455.19;;;11.77;82.86
818;BME280;391;51.052;6.954;2023-02-17T00:50:34;101444.72;;;11.77;82.45
818;BME280;391;51.052;6.954;2023-02-17T00:52:39;101451.13;;;11.62;83.26
818;BME280;391;51.052;6.954;2023-02-17T00:54:43;101451.34;;;11.68;83.47
818;BME280;391;51.052;6.954;2023-02-17T00:56:46;101442.84;;;11.73;83.39
818;BME280;391;51.052;6.954;2023-02-17T00:58:49;101454.31;;;11.54;84.15
818;BME280;391;51.052;6.954;2023-02-17T01:00:55;101451.03;;;11.59;84.00
818;BME280;391;51.052;6.954;2023-02-17T01:02:59;101464.66;;;11.51;84.55
818;BME280;391;51.052;6.954;2023-02-17T01:05:03;101449.78;;;11.48;84.53
818;BME280;391;51.052;6.954;2023-02-17T01:07:07;101445.97;;;11.40;85.26
818;BME280;391;51.052;6.954;2023-02-17T01:09:12;101433.84;;;11.42;85.34
818;BME280;391;51.052;6.954;2023-02-17T01:11:16;101438.81;;;11.35;85.73
818;BME280;391;51.052;6.954;2023-02-17T01:13:20;101438.56;;;11.52;85.25
818;BME280;391;51.052;6.954;2023-02-17T01:15:23;101430.81;;;11.54;85.21
818;BME280;391;51.052;6.954;2023-02-17T01:17:28;101418.16;;;11.41;85.78
818;BME280;391;51.052;6.954;2023-02-17T01:19:31;101418.88;;;11.37;85.95
818;BME280;391;51.052;6.954;2023-02-17T01:21:35;101423.41;;;11.42;85.66
818;BME280;391;51.052;6.954;2023-02-17T01:23:39;101414.75;;;11.20;86.43
818;BME280;391;51.052;6.954;2023-02-17T01:25:44;101418.34;;;11.23;86.45
818;BME280;391;51.052;6.954;2023-02-17T01:27:49;101412.38;;;11.26;86.66
818;BME280;391;51.052;6.954;2023-02-17T01:29:54;101420.25;;;11.27;86.82
818;BME280;391;51.052;6.954;2023-02-17T01:31:58;101410.28;;;11.17;86.99
818;BME280;391;51.052;6.954;2023-02-17T01:34:04;101407.38;;;11.32;86.75
818;BME280;391;51.052;6.954;2023-02-17T01:36:09;101405.09;;;11.41;85.92
818;BME280;391;51.052;6.954;2023-02-17T01:38:14;101407.88;;;11.45;85.55
818;BME280;391;51.052;6.954;2023-02-17T01:40:17;101400.06;;;11.45;85.62
818;BME280;391;51.052;6.954;2023-02-17T01:42:21;101401.66;;;11.42;86.10
818;BME280;391;51.052;6.954;2023-02-17T01:44:25;101401.69;;;11.43;85.63
818;BME280;391;51.052;6.954;2023-02-17T01:46:31;101351.00;;;11.13;86.18
818;BME280;391;51.052;6.954;2023-02-17T01:48:38;101391.53;;;11.51;85.73
818;BME280;391;51.052;6.954;2023-02-17T01:50:47;101390.25;;;11.40;85.82
818;BME280;391;51.052;6.954;2023-02-17T01:52:53;101381.19;;;11.54;85.31
818;BME280;391;51.052;6.954;2023-02-17T01:55:01;101383.75;;;11.52;85.28
818;BME280;391;51.052;6.954;2023-02-17T01:57:06;101383.94;;;11.58;85.05
818;BME280;391;51.052;6.954;2023-02-17T01:59:13;101383.63;;;11.49;85.28
818;BME280;391;51.052;6.954;2023-02-17T02:01:18;101384.91;;;11.60;85.57
818;BME280;391;51.052;6.954;2023-02-17T02:03:22;101392.69;;;11.59;85.24
818;BME280;391;51.052;6.954;2023-02-17T02:05:26;101382.03;;;11.53;85.69
818;BME280;391;51.052;6.954;2023-02-17T02:07:33;101373.69;;;11.39;85.72
818;BME280;391;51.052;6.954;2023-02-17T02:09:40;101386.22;;;11.48;85.91
818;BME280;391;51.052;6.954;2023-02-17T02:11:47;101379.38;;;11.51;85.91
818;BME280;391;51.052;6.954;2023-02-17T02:13:51;101382.09;;;11.54;85.89
818;BME280;391;51.052;6.954;2023-02-17T02:16:02;101373.56;;;11.60;85.56
818;BME280;391;51.052;6.954;2023-02-17T02:18:23;101369.22;;;11.35;85.95
818;BME280;391;51.052;6.954;2023-02-17T02:20:47;101363.78;;;11.29;86.52
818;BME280;391;51.052;6.954;2023-02-17T02:23:26;101375.69;;;11.46;86.60
818;BME280;391;51.052;6.954;2023-02-17T02:25:54;101368.34;;;11.36;86.52
818;BME280;391;51.052;6.954;2023-02-17T02:28:09;101359.72;;;11.13;87.41
818;BME280;391;51.052;6.954;2023-02-17T02:32:52;101366.66;;;11.37;87.30
818;BME280;391;51.052;6.954;2023-02-17T02:35:04;101304.75;;;11.09;86.57
818;BME280;391;51.052;6.954;2023-02-17T02:37:13;101364.25;;;11.43;86.80
818;BME280;391;51.052;6.954;2023-02-17T02:39:20;101353.28;;;11.53;86.14
818;BME280;391;51.052;6.954;2023-02-17T02:41:30;101341.31;;;11.34;86.20
818;BME280;391;51.052;6.954;2023-02-17T02:43:36;101364.41;;;11.47;86.22
818;BME280;391;51.052;6.954;2023-02-17T02:45:39;101350.06;;;11.35;86.58
818;BME280;391;51.052;6.954;2023-02-17T02:47:48;101345.16;;;11.44;86.85
818;BME280;391;51.052;6.954;2023-02-17T02:49:56;101338.69;;;11.58;86.09
818;BME280;391;51.052;6.954;2023-02-17T02:52:05;101349.25;;;11.61;85.56
818;BME280;391;51.052;6.954;2023-02-17T02:54:18;101348.75;;;11.47;86.24
818;BME280;391;51.052;6.954;2023-02-17T02:56:38;101257.69;;;11.06;86.10
818;BME280;391;51.052;6.954;2023-02-17T02:58:48;101333.47;;;11.58;85.67
818;BME280;391;51.052;6.954;2023-02-17T03:00:57;101308.59;;;11.44;85.37
818;BME280;391;51.052;6.954;2023-02-17T03:03:09;101337.19;;;11.64;85.61
818;BME280;391;51.052;6.954;2023-02-17T03:05:21;101334.91;;;11.74;85.04
818;BME280;391;51.052;6.954;2023-02-17T03:07:31;101334.91;;;11.74;84.97
818;BME280;391;51.052;6.954;2023-02-17T03:09:37;101334.00;;;11.49;86.04
818;BME280;391;51.052;6.954;2023-02-17T03:11:41;101331.50;;;11.52;85.61
818;BME280;391;51.052;6.954;2023-02-17T03:13:44;101330.00;;;11.59;85.86
818;BME280;391;51.052;6.954;2023-02-17T03:15:49;101328.81;;;11.75;85.09
818;BME280;391;51.052;6.954;2023-02-17T03:17:55;101328.09;;;11.79;84.49
818;BME280;391;51.052;6.954;2023-02-17T03:20:02;101323.69;;;11.52;85.52
818;BME280;391;51.052;6.954;2023-02-17T03:22:10;101323.31;;;11.67;85.33
818;BME280;391;51.052;6.954;2023-02-17T03:24:17;101319.41;;;11.54;85.67
818;BME280;391;51.052;6.954;2023-02-17T03:26:20;101323.03;;;11.58;85.70
818;BME280;391;51.052;6.954;2023-02-17T03:28:25;101319.25;;;11.75;85.09
818;BME280;391;51.052;6.954;2023-02-17T03:30:29;101319.00;;;11.67;84.96
818;BME280;391;51.052;6.954;2023-02-17T03:32:32;101314.22;;;11.56;85.46
818;BME280;391;51.052;6.954;2023-02-17T03:34:36;101311.91;;;11.40;85.58
818;BME280;391;51.052;6.954;2023-02-17T03:36:40;101311.13;;;11.42;85.99
818;BME280;391;51.052;6.954;2023-02-17T03:38:44;101313.22;;;11.52;85.95
818;BME280;391;51.052;6.954;2023-02-17T03:40:47;101315.22;;;11.59;85.21
818;BME280;391;51.052;6.954;2023-02-17T03:42:51;101320.97;;;11.49;86.03
818;BME280;391;51.052;6.954;2023-02-17T03:44:54;101326.03;;;11.45;86.13
818;BME280;391;51.052;6.954;2023-02-17T03:46:57;101317.03;;;11.37;86.06
818;BME280;391;51.052;6.954;2023-02-17T03:49:01;101310.78;;;11.57;85.56
818;BME280;391;51.052;6.954;2023-02-17T03:51:11;101309.31;;;11.65;85.33
818;BME280;391;51.052;6.954;2023-02-17T03:53:17;101311.19;;;11.69;84.96
818;BME280;391;51.052;6.954;2023-02-17T03:55:20;101307.91;;;11.49;85.55
818;BME280;391;51.052;6.954;2023-02-17T03:57:24;101196.72;;;11.04;85.08
818;BME280;391;51.052;6.954;2023-02-17T03:59:28;101304.03;;;11.63;84.69
818;BME280;391;51.052;6.954;2023-02-17T04:01:32;101304.25;;;11.69;84.96
818;BME280;391;51.052;6.954;2023-02-17T04:03:36;101294.41;;;11.61;84.66
818;BME280;391;51.052;6.954;2023-02-17T04:05:39;101308.22;;;11.58;85.11
818;BME280;391;51.052;6.954;2023-02-17T04:07:43;101310.88;;;11.60;85.12
818;BME280;391;51.052;6.954;2023-02-17T04:09:47;101258.25;;;11.23;85.23
818;BME280;391;51.052;6.954;2023-02-17T04:11:51;101315.28;;;11.61;85.32
818;BME280;391;51.052;6.954;2023-02-17T04:13:54;101246.81;;;11.19;85.04
818;BME280;391;51.052;6.954;2023-02-17T04:15:58;101318.38;;;11.75;84.67
818;BME280;391;51.052;6.954;2023-02-17T04:18:02;101320.41;;;11.83;84.30
818;BME280;391;51.052;6.954;2023-02-17T04:20:06;101323.25;;;11.65;84.68
818;BME280;391;51.052;6.954;2023-02-17T04:22:10;101323.69;;;11.52;85.34
818;BME280;391;51.052;6.954;2023-02-17T04:24:13;101327.56;;;11.63;85.07
818;BME280;391;51.052;6.954;2023-02-17T04:26:18;101329.44;;;11.67;84.26
818;BME280;391;51.052;6.954;2023-02-17T04:28:22;101324.16;;;11.66;84.66
818;BME280;391;51.052;6.954;2023-02-17T04:30:25;101323.22;;;11.64;84.91
818;BME280;391;51.052;6.954;2023-02-17T04:32:29;101322.78;;;11.76;84.21
818;BME280;391;51.052;6.954;2023-02-17T04:34:32;101317.03;;;11.62;84.27
818;BME280;391;51.052;6.954;2023-02-17T04:36:35;101326.28;;;11.52;84.96
818;BME280;391;51.052;6.954;2023-02-17T04:38:39;101320.94;;;11.48;85.07
818;BME280;391;51.052;6.954;2023-02-17T04:40:42;101325.16;;;11.69;84.67
818;BME280;391;51.052;6.954;2023-02-17T04:42:47;101327.00;;;11.72;84.34
818;BME280;391;51.052;6.954;2023-02-17T04:44:50;101332.19;;;11.71;84.28
818;BME280;391;51.052;6.954;2023-02-17T04:46:54;101338.41;;;11.74;84.24
818;BME280;391;51.052;6.954;2023-02-17T04:48:58;101336.00;;;11.80;83.99
818;BME280;391;51.052;6.954;2023-02-17T04:51:01;101327.16;;;11.77;84.21
818;BME280;391;51.052;6.954;2023-02-17T04:53:04;101325.66;;;11.83;83.52
818;BME280;391;51.052;6.954;2023-02-17T04:55:08;101306.56;;;11.60;84.00
818;BME280;391;51.052;6.954;2023-02-17T04:57:12;101324.84;;;11.60;84.79
818;BME280;391;51.052;6.954;2023-02-17T04:59:17;101320.25;;;11.79;83.85
818;BME280;391;51.052;6.954;2023-02-17T05:01:20;101322.34;;;11.89;83.66
818;BME280;391;51.052;6.954;2023-02-17T05:03:24;101316.91;;;11.83;83.39
818;BME280;391;51.052;6.954;2023-02-17T05:05:28;101338.66;;;11.82;83.60
818;BME280;391;51.052;6.954;2023-02-17T05:07:32;101322.84;;;11.77;83.25
818;BME280;391;51.052;6.954;2023-02-17T05:09:36;101309.00;;;11.81;83.34
818;BME280;391;51.052;6.954;2023-02-17T05:11:42;101298.13;;;11.69;83.56
818;BME280;391;51.052;6.954;2023-02-17T05:13:45;101313.69;;;11.66;84.16
818;BME280;391;51.052;6.954;2023-02-17T05:15:50;101320.94;;;11.73;83.94
818;BME280;391;51.052;6.954;2023-02-17T05:17:53;101315.03;;;11.79;83.95
818;BME280;391;51.052;6.954;2023-02-17T05:19:57;101305.59;;;11.58;83.50
818;BME280;391;51.052;6.954;2023-02-17T05:22:01;101292.53;;;11.58;83.98
818;BME280;391;51.052;6.954;2023-02-17T05:24:05;101326.47;;;11.57;84.17
818;BME280;391;51.052;6.954;2023-02-17T05:26:09;101329.44;;;11.67;84.22
818;BME280;391;51.052;6.954;2023-02-17T05:28:13;101321.13;;;11.54;84.54
818;BME280;391;51.052;6.954;2023-02-17T05:30:16;101317.13;;;11.65;84.15
818;BME280;391;51.052;6.954;2023-02-17T05:32:22;101325.34;;;11.74;83.62
818;BME280;391;51.052;6.954;2023-02-17T05:34:26;101313.91;;;11.71;83.47
818;BME280;391;51.052;6.954;2023-02-17T05:36:29;101311.16;;;11.67;83.60
818;BME280;391;51.052;6.954;2023-02-17T05:38:33;101304.66;;;11.56;83.81
818;BME280;391;51.052;6.954;2023-02-17T05:40:36;101306.94;;;11.71;83.66
818;BME280;391;51.052;6.954;2023-02-17T05:42:39;101309.09;;;11.84;83.42
818;BME280;391;51.052;6.954;2023-02-17T05:44:43;101305.78;;;11.88;82.76
818;BME280;391;51.052;6.954;2023-02-17T05:46:46;101302.91;;;11.81;83.19
818;BME280;391;51.052;6.954;2023-02-17T05:48:51;101304.31;;;11.71;83.51
818;BME280;391;51.052;6.954;2023-02-17T05:50:55;101306.69;;;11.65;83.93
818;BME280;391;51.052;6.954;2023-02-17T05:52:58;101312.50;;;11.56;84.21
818;BME280;391;51.052;6.954;2023-02-17T05:55:02;101312.19;;;11.47;84.70
818;BME280;391;51.052;6.954;2023-02-17T05:57:06;101311.47;;;11.51;84.77
818;BME280;391;51.052;6.954;2023-02-17T05:59:09;101301.22;;;11.57;84.74
818;BME280;391;51.052;6.954;2023-02-17T06:01:13;101300.84;;;11.71;84.16
818;BME280;391;51.052;6.954;2023-02-17T06:03:17;101298.94;;;11.66;83.92
818;BME280;391;51.052;6.954;2023-02-17T06:05:22;101287.31;;;11.58;84.71
818;BME280;391;51.052;6.954;2023-02-17T06:07:25;101281.13;;;11.55;84.55
818;BME280;391;51.052;6.954;2023-02-17T06:09:28;101295.81;;;11.51;85.12
818;BME280;391;51.052;6.954;2023-02-17T06:11:32;101295.91;;;11.54;85.11
818;BME280;391;51.052;6.954;2023-02-17T06:13:36;101291.19;;;11.69;84.61
818;BME280;391;51.052;6.954;2023-02-17T06:15:39;101302.16;;;11.59;85.03
818;BME280;391;51.052;6.954;2023-02-17T06:17:43;101297.75;;;11.58;85.04
818;BME280;391;51.052;6.954;2023-02-17T06:19:46;101308.31;;;11.61;85.02
818;BME280;391;51.052;6.954;2023-02-17T06:21:51;101299.44;;;11.56;85.21
818;BME280;391;51.052;6.954;2023-02-17T06:23:55;101210.84;;;11.10;85.20
818;BME280;391;51.052;6.954;2023-02-17T06:25:58;101303.94;;;11.60;85.35
818;BME280;391;51.052;6.954;2023-02-17T06:28:02;101296.47;;;11.71;85.44
818;BME280;391;51.052;6.954;2023-02-17T06:30:06;101199.06;;;11.22;84.81
818;BME280;391;51.052;6.954;2023-02-17T06:32:10;101289.19;;;11.88;84.64
818;BME280;391;51.052;6.954;2023-02-17T06:34:14;101297.47;;;11.75;84.96
818;BME280;391;51.052;6.954;2023-02-17T06:36:17;101279.59;;;11.61;85.76
818;BME280;391;51.052;6.954;2023-02-17T06:38:22;101285.16;;;11.71;85.77
818;BME280;391;51.052;6.954;2023-02-17T06:40:26;101293.81;;;11.69;85.68
818;BME280;391;51.052;6.954;2023-02-17T06:42:29;101287.41;;;11.61;86.57
818;BME280;391;51.052;6.954;2023-02-17T06:44:33;101285.28;;;11.74;86.25
818;BME280;391;51.052;6.954;2023-02-17T06:46:36;101288.78;;;11.74;85.97
818;BME280;391;51.052;6.954;2023-02-17T06:48:40;101284.94;;;11.64;86.73
818;BME280;391;51.052;6.954;2023-02-17T06:50:44;101298.34;;;11.74;86.43
818;BME280;391;51.052;6.954;2023-02-17T06:52:47;101274.16;;;11.55;86.60
818;BME280;391;51.052;6.954;2023-02-17T06:54:52;101297.00;;;11.61;87.40
818;BME280;391;51.052;6.954;2023-02-17T06:56:56;101296.91;;;11.58;87.65
818;BME280;391;51.052;6.954;2023-02-17T06:59:00;101302.56;;;11.70;87.86
818;BME280;391;51.052;6.954;2023-02-17T07:01:04;101295.94;;;11.81;87.14
818;BME280;391;51.052;6.954;2023-02-17T07:03:09;101284.09;;;11.65;87.54
818;BME280;391;51.052;6.954;2023-02-17T07:05:12;101296.75;;;11.79;87.39
818;BME280;391;51.052;6.954;2023-02-17T07:07:16;101300.75;;;11.69;87.73
818;BME280;391;51.052;6.954;2023-02-17T07:09:19;101292.16;;;11.72;89.05
818;BME280;391;51.052;6.954;2023-02-17T07:11:24;101288.84;;;12.04;88.35
818;BME280;391;51.052;6.954;2023-02-17T07:13:32;101301.28;;;12.11;86.99
818;BME280;391;51.052;6.954;2023-02-17T07:15:36;101289.84;;;11.81;88.66
818;BME280;391;51.052;6.954;2023-02-17T07:17:39;101288.81;;;11.76;89.36
818;BME280;391;51.052;6.954;2023-02-17T07:19:43;101297.84;;;11.85;89.36
818;BME280;391;51.052;6.954;2023-02-17T07:21:46;101291.31;;;11.73;90.00
818;BME280;391;51.052;6.954;2023-02-17T07:23:50;101300.94;;;11.74;90.38
818;BME280;391;51.052;6.954;2023-02-17T07:25:53;101271.13;;;11.68;90.54
818;BME280;391;51.052;6.954;2023-02-17T07:27:58;101299.34;;;11.79;90.51
818;BME280;391;51.052;6.954;2023-02-17T07:30:02;101293.59;;;11.89;90.07
818;BME280;391;51.052;6.954;2023-02-17T07:32:05;101300.72;;;11.93;89.26
818;BME280;391;51.052;6.954;2023-02-17T07:34:09;101290.91;;;11.87;89.70
818;BME280;391;51.052;6.954;2023-02-17T07:36:14;101299.94;;;11.97;89.32
818;BME280;391;51.052;6.954;2023-02-17T07:38:18;101294.94;;;11.76;89.99
818;BME280;391;51.052;6.954;2023-02-17T07:40:21;101299.66;;;11.62;90.81
818;BME280;391;51.052;6.954;2023-02-17T07:42:26;101287.78;;;11.71;90.62
818;BME280;391;51.052;6.954;2023-02-17T07:44:32;101301.88;;;11.76;90.99
818;BME280;391;51.052;6.954;2023-02-17T07:46:36;101299.56;;;11.85;90.45
818;BME280;391;51.052;6.954;2023-02-17T07:48:40;101295.41;;;11.91;90.40
818;BME280;391;51.052;6.954;2023-02-17T07:50:44;101292.09;;;11.97;89.78
818;BME280;391;51.052;6.954;2023-02-17T07:52:48;101296.72;;;11.77;90.50
818;BME280;391;51.052;6.954;2023-02-17T07:54:52;101294.19;;;11.80;90.50
818;BME280;391;51.052;6.954;2023-02-17T07:56:56;101310.69;;;11.79;90.62
818;BME280;391;51.052;6.954;2023-02-17T07:58:59;101305.06;;;11.94;90.18
818;BME280;391;51.052;6.954;2023-02-17T08:01:06;101300.81;;;11.96;89.96
818;BME280;391;51.052;6.954;2023-02-17T08:03:09;101301.69;;;11.96;90.25
818;BME280;391;51.052;6.954;2023-02-17T08:05:12;101298.00;;;11.90;90.49
818;BME280;391;51.052;6.954;2023-02-17T08:07:16;101304.06;;;12.15;89.74
818;BME280;391;51.052;6.954;2023-02-17T08:09:19;101311.31;;;12.26;89.40
818;BME280;391;51.052;6.954;2023-02-17T08:11:41;101311.00;;;12.15;89.53
818;BME280;391;51.052;6.954;2023-02-17T08:14:02;101295.44;;;12.19;89.26
818;BME280;391;51.052;6.954;2023-02-17T08:16:07;101320.16;;;12.29;88.89
818;BME280;391;51.052;6.954;2023-02-17T08:18:11;101292.44;;;12.06;89.30
818;BME280;391;51.052;6.954;2023-02-17T08:20:15;101312.22;;;12.26;88.93
818;BME280;391;51.052;6.954;2023-02-17T08:22:19;101320.06;;;12.26;89.06
818;BME280;391;51.052;6.954;2023-02-17T08:24:22;101312.25;;;11.99;89.76
818;BME280;391;51.052;6.954;2023-02-17T08:26:26;101312.94;;;12.22;89.83
818;BME280;391;51.052;6.954;2023-02-17T08:28:30;101314.63;;;12.20;89.44
818;BME280;391;51.052;6.954;2023-02-17T08:30:34;101308.59;;;12.23;89.90
818;BME280;391;51.052;6.954;2023-02-17T08:32:41;101319.31;;;12.30;89.50
818;BME280;391;51.052;6.954;2023-02-17T08:34:44;101315.53;;;12.20;89.78
818;BME280;391;51.052;6.954;2023-02-17T08:36:47;101314.63;;;12.20;90.03
818;BME280;391;51.052;6.954;2023-02-17T08:38:51;101332.41;;;12.32;89.66
818;BME280;391;51.052;6.954;2023-02-17T08:40:55;101318.16;;;12.20;90.05
818;BME280;391;51.052;6.954;2023-02-17T08:42:58;101324.97;;;12.44;89.59
818;BME280;391;51.052;6.954;2023-02-17T08:45:05;101321.38;;;12.40;89.28
818;BME280;391;51.052;6.954;2023-02-17T08:47:09;101323.25;;;12.44;89.26
818;BME280;391;51.052;6.954;2023-02-17T08:49:15;101321.84;;;12.55;89.12
818;BME280;391;51.052;6.954;2023-02-17T08:51:21;101328.50;;;12.44;88.86
818;BME280;391;51.052;6.954;2023-02-17T08:53:26;101252.63;;;11.88;89.77
818;BME280;391;51.052;6.954;2023-02-17T08:55:30;101298.22;;;12.24;89.88
818;BME280;391;51.052;6.954;2023-02-17T08:57:48;101309.22;;;12.42;89.76
818;BME280;391;51.052;6.954;2023-02-17T08:59:52;101307.03;;;12.56;89.10
818;BME280;391;51.052;6.954;2023-02-17T09:01:56;101298.03;;;12.46;88.97
818;BME280;391;51.052;6.954;2023-02-17T09:04:02;101310.41;;;12.52;89.43
818;BME280;391;51.052;6.954;2023-02-17T09:06:07;101315.50;;;12.47;89.16
818;BME280;391;51.052;6.954;2023-02-17T09:08:11;101301.63;;;12.50;89.45
818;BME280;391;51.052;6.954;2023-02-17T09:10:14;101301.53;;;12.47;89.12
818;BME280;391;51.052;6.954;2023-02-17T09:12:18;101279.47;;;12.39;88.72
818;BME280;391;51.052;6.954;2023-02-17T09:14:21;101308.66;;;12.52;88.81
818;BME280;391;51.052;6.954;2023-02-17T09:16:26;101295.75;;;12.57;88.77
818;BME280;391;51.052;6.954;2023-02-17T09:18:29;101304.78;;;12.68;88.34
818;BME280;391;51.052;6.954;2023-02-17T09:20:34;101307.53;;;12.72;88.01
818;BME280;391;51.052;6.954;2023-02-17T09:22:40;101292.03;;;12.80;87.30
818;BME280;391;51.052;6.954;2023-02-17T09:24:43;101276.66;;;12.61;87.12
818;BME280;391;51.052;6.954;2023-02-17T09:26:47;101305.66;;;12.98;87.27
818;BME280;391;51.052;6.954;2023-02-17T09:28:50;101286.41;;;12.96;86.32
818;BME280;391;51.052;6.954;2023-02-17T09:30:54;101305.31;;;13.16;86.24
818;BME280;391;51.052;6.954;2023-02-17T09:32:58;101268.66;;;12.86;86.09
818;BME280;391;51.052;6.954;2023-02-17T09:35:01;101304.31;;;13.11;86.18
818;BME280;391;51.052;6.954;2023-02-17T09:37:09;101303.63;;;12.88;86.36
818;BME280;391;51.052;6.954;2023-02-17T09:39:14;101313.69;;;13.04;86.29
818;BME280;391;51.052;6.954;2023-02-17T09:41:21;101304.59;;;13.21;85.97
818;BME280;391;51.052;6.954;2023-02-17T09:43:27;101270.22;;;13.09;85.55
818;BME280;391;51.052;6.954;2023-02-17T09:45:34;101309.88;;;13.23;84.78
818;BME280;391;51.052;6.954;2023-02-17T09:47:42;101307.09;;;13.17;85.24
818;BME280;391;51.052;6.954;2023-02-17T09:49:51;101310.59;;;13.17;85.31
818;BME280;391;51.052;6.954;2023-02-17T09:52:00;101318.53;;;13.20;85.00
818;BME280;391;51.052;6.954;2023-02-17T09:54:10;101272.63;;;13.03;85.17
818;BME280;391;51.052;6.954;2023-02-17T09:56:23;101302.47;;;13.40;84.54
818;BME280;391;51.052;6.954;2023-02-17T09:58:32;101330.13;;;13.61;83.95
818;BME280;391;51.052;6.954;2023-02-17T10:00:40;101317.84;;;13.59;83.85
818;BME280;391;51.052;6.954;2023-02-17T10:02:48;101323.38;;;13.71;83.01
818;BME280;391;51.052;6.954;2023-02-17T10:04:59;101333.13;;;13.76;82.81
818;BME280;391;51.052;6.954;2023-02-17T10:07:07;101314.63;;;13.70;82.89
818;BME280;391;51.052;6.954;2023-02-17T10:09:15;101323.69;;;13.83;82.48
818;BME280;391;51.052;6.954;2023-02-17T10:11:26;101332.47;;;13.85;82.46
818;BME280;391;51.052;6.954;2023-02-17T10:13:33;101345.22;;;14.06;82.01
818;BME280;391;51.052;6.954;2023-02-17T10:15:39;101330.38;;;14.06;81.86
818;BME280;391;51.052;6.954;2023-02-17T10:17:48;101324.19;;;14.04;81.54
818;BME280;391;51.052;6.954;2023-02-17T10:19:59;101333.78;;;14.02;81.20
818;BME280;391;51.052;6.954;2023-02-17T10:22:10;101341.84;;;14.10;81.56
818;BME280;391;51.052;6.954;2023-02-17T10:24:14;101351.88;;;14.27;81.03
818;BME280;391;51.052;6.954;2023-02-17T10:26:25;101344.31;;;14.04;81.11
818;BME280;391;51.052;6.954;2023-02-17T10:28:46;101336.25;;;13.98;81.55
818;BME280;391;51.052;6.954;2023-02-17T10:30:58;101341.59;;;14.01;81.40
818;BME280;391;51.052;6.954;2023-02-17T10:33:11;101327.72;;;14.05;81.29
818;BME280;391;51.052;6.954;2023-02-17T10:35:22;101327.16;;;14.18;80.95
818;BME280;391;51.052;6.954;2023-02-17T10:37:39;101319.16;;;14.12;80.87
818;BME280;391;51.052;6.954;2023-02-17T10:39:46;101329.75;;;14.16;80.83
818;BME280;391;51.052;6.954;2023-02-17T10:41:53;101322.03;;;14.24;80.48
818;BME280;391;51.052;6.954;2023-02-17T10:43:58;101296.31;;;14.08;80.33
818;BME280;391;51.052;6.954;2023-02-17T10:46:05;101339.88;;;14.36;80.14
818;BME280;391;51.052;6.954;2023-02-17T10:48:13;101333.78;;;14.38;80.43
818;BME280;391;51.052;6.954;2023-02-17T10:50:20;101333.16;;;14.48;80.15
818;BME280;391;51.052;6.954;2023-02-17T10:52:31;101332.78;;;14.72;79.41
818;BME280;391;51.052;6.954;2023-02-17T10:54:37;101341.66;;;14.77;78.83
818;BME280;391;51.052;6.954;2023-02-17T10:56:45;101334.19;;;14.56;79.02
818;BME280;391;51.052;6.954;2023-02-17T10:58:55;101328.75;;;14.47;79.41
818;BME280;391;51.052;6.954;2023-02-17T11:01:02;101351.81;;;14.62;79.10
818;BME280;391;51.052;6.954;2023-02-17T11:03:17;101347.66;;;14.71;78.75
818;BME280;391;51.052;6.954;2023-02-17T11:05:24;101342.47;;;14.74;78.40
818;BME280;391;51.052;6.954;2023-02-17T11:07:32;101340.53;;;14.64;78.53
818;BME280;391;51.052;6.954;2023-02-17T11:09:39;101338.16;;;14.78;78.54
818;BME280;391;51.052;6.954;2023-02-17T11:11:52;101332.47;;;14.58;79.00
818;BME280;391;51.052;6.954;2023-02-17T11:14:08;101315.19;;;14.66;79.02
818;BME280;391;51.052;6.954;2023-02-17T11:16:21;101305.19;;;14.50;79.11
818;BME280;391;51.052;6.954;2023-02-17T11:18:31;101314.78;;;14.48;79.70
818;BME280;391;51.052;6.954;2023-02-17T11:20:36;101326.81;;;14.39;79.85
818;BME280;391;51.052;6.954;2023-02-17T11:22:41;101321.06;;;14.55;79.46
818;BME280;391;51.052;6.954;2023-02-17T11:24:56;101320.06;;;14.50;79.46
818;BME280;391;51.052;6.954;2023-02-17T11:27:02;101283.72;;;14.30;79.85
818;BME280;391;51.052;6.954;2023-02-17T11:29:09;101264.47;;;14.30;79.86
818;BME280;391;51.052;6.954;2023-02-17T11:31:22;101320.13;;;14.53;79.56
818;BME280;391;51.052;6.954;2023-02-17T11:33:30;101322.16;;;14.66;79.31
818;BME280;391;51.052;6.954;2023-02-17T11:35:44;101316.09;;;14.68;79.38